createdAt,value
2022-11-20T00:01:26.123Z,100252.38
2022-11-20T00:03:54.563Z,100254.94
2022-11-20T00:06:22.021Z,100251.63
2022-11-20T00:08:49.014Z,100255.13
2022-11-20T00:11:17.965Z,100258.94
2022-11-20T00:13:45.718Z,100256.31
2022-11-20T00:16:14.313Z,100253.84
2022-11-20T00:18:40.725Z,100249.31
2022-11-20T00:21:11.452Z,100247.09
2022-11-20T00:23:37.812Z,100242.53
2022-11-20T00:26:09.817Z,100249.00
2022-11-20T00:28:36.280Z,100239.78
2022-11-20T00:31:06.583Z,100243.38
2022-11-20T00:33:33.287Z,100251.13
2022-11-20T00:36:04.763Z,100246.59
2022-11-20T00:38:32.340Z,100248.38
2022-11-20T00:41:00.401Z,100239.59
2022-11-20T00:43:27.679Z,100237.22
2022-11-20T00:46:04.737Z,100237.16
2022-11-20T00:48:31.672Z,100233.66
2022-11-20T00:50:58.302Z,100238.75
2022-11-20T00:53:25.175Z,100232.78
2022-11-20T00:55:55.674Z,100235.78
2022-11-20T00:58:23.218Z,100239.25
2022-11-20T01:00:50.563Z,100239.00
2022-11-20T01:03:22.757Z,100241.28
2022-11-20T01:09:41.971Z,100235.06
2022-11-20T01:12:08.270Z,100236.94
2022-11-20T01:14:34.611Z,100233.63
2022-11-20T01:17:00.970Z,100243.84
2022-11-20T01:19:27.288Z,100248.13
2022-11-20T01:21:55.042Z,100238.31
2022-11-20T01:24:22.935Z,100244.25
2022-11-20T01:26:51.392Z,100242.84
2022-11-20T01:29:23.748Z,100246.06
2022-11-20T01:31:50.816Z,100244.88
2022-11-20T01:34:19.238Z,100239.94
2022-11-20T01:36:46.310Z,100247.09
2022-11-20T01:39:21.938Z,100234.97
2022-11-20T01:42:10.421Z,100236.84
2022-11-20T01:44:57.242Z,100235.78
2022-11-20T01:47:36.002Z,100231.53
2022-11-20T01:50:14.551Z,100227.38
2022-11-20T01:52:45.456Z,100220.34
2022-11-20T01:55:20.282Z,100222.94
2022-11-20T01:57:48.708Z,100216.41
2022-11-20T02:00:17.463Z,100229.53
2022-11-20T02:02:49.311Z,100223.06
2022-11-20T02:05:18.973Z,100219.03
2022-11-20T02:07:46.711Z,100222.63
2022-11-20T02:10:13.318Z,100217.69
2022-11-20T02:12:58.340Z,100221.09
2022-11-20T02:15:29.015Z,100216.91
2022-11-20T02:17:56.755Z,100214.28
2022-11-20T02:20:23.250Z,100217.41
2022-11-20T02:23:00.491Z,100219.63
2022-11-20T02:25:29.286Z,100212.09
2022-11-20T02:27:56.013Z,100219.44
2022-11-20T02:30:22.313Z,100212.81
2022-11-20T02:32:48.659Z,100200.22
2022-11-20T02:35:21.193Z,100202.22
2022-11-20T02:37:51.157Z,100202.56
2022-11-20T02:40:17.709Z,100212.19
2022-11-20T02:42:44.044Z,100211.41
2022-11-20T02:45:10.937Z,100206.28
2022-11-20T02:47:37.253Z,100201.63
2022-11-20T02:50:05.843Z,100199.59
2022-11-20T02:52:32.224Z,100200.88
2022-11-20T02:54:58.533Z,100205.84
2022-11-20T02:57:24.857Z,100201.31
2022-11-20T02:59:51.348Z,100209.50
2022-11-20T03:02:17.692Z,100215.53
2022-11-20T03:04:44.058Z,100199.41
2022-11-20T03:07:10.751Z,100203.69
2022-11-20T03:09:37.171Z,100214.00
2022-11-20T03:12:03.742Z,100206.56
2022-11-20T03:14:30.101Z,100204.88
2022-11-20T03:16:56.912Z,100191.22
2022-11-20T03:19:23.738Z,100198.81
2022-11-20T03:21:50.521Z,100198.97
2022-11-20T03:24:16.885Z,100191.81
2022-11-20T03:26:43.299Z,100203.28
2022-11-20T03:29:09.647Z,100194.69
2022-11-20T03:31:38.855Z,100201.19
2022-11-20T03:34:05.464Z,100195.91
2022-11-20T03:36:32.654Z,100193.53
2022-11-20T03:38:59.924Z,100196.34
2022-11-20T03:41:28.687Z,100175.72
2022-11-20T03:43:57.718Z,100192.84
2022-11-20T03:46:24.404Z,100207.22
2022-11-20T03:48:52.112Z,100197.88
2022-11-20T03:51:21.047Z,100191.13
2022-11-20T03:53:48.994Z,100191.13
2022-11-20T03:56:17.500Z,100200.78
2022-11-20T03:58:44.196Z,100205.88
2022-11-20T04:01:13.101Z,100190.28
2022-11-20T04:03:40.723Z,100180.66
2022-11-20T04:06:13.508Z,100186.09
2022-11-20T04:08:40.605Z,100187.91
2022-11-20T04:11:20.214Z,100191.22
2022-11-20T04:13:49.051Z,100186.09
2022-11-20T04:16:16.458Z,100180.03
2022-11-20T04:18:44.141Z,100170.75
2022-11-20T04:21:11.587Z,100163.25
2022-11-20T04:23:38.454Z,100162.69
2022-11-20T04:26:10.498Z,100176.84
2022-11-20T04:28:37.696Z,100153.50
2022-11-20T04:31:13.193Z,100156.63
2022-11-20T04:33:40.031Z,100165.75
2022-11-20T04:36:21.118Z,100164.38
2022-11-20T04:38:56.353Z,100163.63
2022-11-20T04:41:25.938Z,100177.16
2022-11-20T04:44:00.417Z,100169.03
2022-11-20T04:46:28.053Z,100175.50
2022-11-20T04:48:54.495Z,100175.25
2022-11-20T04:51:21.134Z,100175.75
2022-11-20T04:53:47.823Z,100175.63
2022-11-20T04:56:14.483Z,100180.38
2022-11-20T04:58:41.203Z,100177.25
2022-11-20T05:01:09.881Z,100159.88
2022-11-20T05:03:41.023Z,100163.81
2022-11-20T05:06:09.629Z,100167.22
2022-11-20T05:08:35.994Z,100159.91
2022-11-20T05:11:07.220Z,100152.38
2022-11-20T05:13:33.550Z,100177.44
2022-11-20T05:16:09.406Z,100173.84
2022-11-20T05:18:36.682Z,100165.63
2022-11-20T05:21:03.511Z,100167.09
2022-11-20T05:23:31.768Z,100163.72
2022-11-20T05:25:59.163Z,100160.88
2022-11-20T05:28:26.874Z,100159.66
2022-11-20T05:30:53.292Z,100159.53
2022-11-20T05:33:19.738Z,100157.56
2022-11-20T05:35:46.592Z,100159.16
2022-11-20T05:38:13.044Z,100160.25
2022-11-20T05:40:39.428Z,100156.97
2022-11-20T05:43:05.826Z,100152.78
2022-11-20T05:45:32.216Z,100158.75
2022-11-20T05:48:01.144Z,100168.09
2022-11-20T05:50:30.440Z,100155.81
2022-11-20T05:53:00.146Z,100158.81
2022-11-20T05:55:27.409Z,100147.03
2022-11-20T05:57:55.582Z,100131.81
2022-11-20T06:00:22.044Z,100133.31
2022-11-20T06:02:49.573Z,100140.59
2022-11-20T06:05:16.031Z,100145.25
2022-11-20T06:07:42.468Z,100152.25
2022-11-20T06:10:09.243Z,100146.78
2022-11-20T06:12:35.617Z,100143.53
2022-11-20T06:15:02.078Z,100154.03
2022-11-20T06:17:28.413Z,100140.16
2022-11-20T06:19:54.733Z,100144.78
2022-11-20T06:22:21.065Z,100140.00
2022-11-20T06:24:48.330Z,100140.31
2022-11-20T06:27:14.752Z,100124.88
2022-11-20T06:29:41.101Z,100135.47
2022-11-20T06:32:07.465Z,100143.78
2022-11-20T06:34:33.799Z,100147.69
2022-11-20T06:37:00.165Z,100144.69
2022-11-20T06:39:26.466Z,100145.44
2022-11-20T06:41:58.384Z,100144.69
2022-11-20T06:44:25.526Z,100134.38
2022-11-20T06:46:51.836Z,100144.09
2022-11-20T06:49:18.182Z,100142.03
2022-11-20T06:51:44.526Z,100135.03
2022-11-20T06:54:10.830Z,100141.75
2022-11-20T06:56:37.153Z,100149.75
2022-11-20T06:59:07.605Z,100158.47
2022-11-20T07:01:34.065Z,100169.81
2022-11-20T07:04:00.375Z,100165.84
2022-11-20T07:06:26.706Z,100167.91
2022-11-20T07:08:56.054Z,100168.50
2022-11-20T07:11:22.486Z,100156.66
2022-11-20T07:13:48.794Z,100170.28
2022-11-20T07:16:15.190Z,100156.56
2022-11-20T07:18:45.927Z,100168.41
2022-11-20T07:21:15.374Z,100178.59
2022-11-20T07:23:41.735Z,100170.06
2022-11-20T07:26:10.264Z,100173.59
2022-11-20T07:28:37.420Z,100176.19
2022-11-20T07:31:04.493Z,100187.13
2022-11-20T07:33:31.300Z,100183.59
2022-11-20T07:36:00.664Z,100170.75
2022-11-20T07:38:27.211Z,100183.06
2022-11-20T07:40:58.495Z,100174.09
2022-11-20T07:43:26.039Z,100181.94
2022-11-20T07:45:52.342Z,100173.25
2022-11-20T07:48:18.675Z,100180.59
2022-11-20T07:50:44.991Z,100180.22
2022-11-20T07:53:11.370Z,100179.38
2022-11-20T07:55:37.714Z,100179.88
2022-11-20T07:58:04.086Z,100178.13
2022-11-20T08:00:30.538Z,100183.06
2022-11-20T08:02:56.971Z,100184.63
2022-11-20T08:05:28.695Z,100193.31
2022-11-20T08:07:55.040Z,100202.50
2022-11-20T08:10:21.409Z,100194.44
2022-11-20T08:13:08.318Z,100198.88
2022-11-20T08:15:35.583Z,100191.44
2022-11-20T08:20:53.837Z,100198.44
2022-11-20T08:23:20.139Z,100191.72
2022-11-20T08:25:50.638Z,100198.03
2022-11-20T08:28:21.291Z,100192.53
2022-11-20T08:30:49.302Z,100194.44
2022-11-20T08:33:15.788Z,100207.13
2022-11-20T08:35:42.648Z,100210.16
2022-11-20T08:38:09.749Z,100209.41
2022-11-20T08:40:36.136Z,100208.56
2022-11-20T08:43:02.491Z,100210.72
2022-11-20T08:45:33.778Z,100200.50
2022-11-20T08:48:04.830Z,100202.88
2022-11-20T08:50:33.025Z,100206.75
2022-11-20T08:53:04.440Z,100209.00
2022-11-20T08:55:30.752Z,100209.50
2022-11-20T08:57:57.111Z,100214.59
2022-11-20T09:00:23.527Z,100217.25
2022-11-20T09:02:49.851Z,100218.19
2022-11-20T09:05:16.370Z,100224.81
2022-11-20T09:07:43.131Z,100229.63
2022-11-20T09:10:23.701Z,100230.22
2022-11-20T09:12:52.534Z,100229.91
2022-11-20T09:15:19.277Z,100234.47
2022-11-20T09:17:56.316Z,100227.16
2022-11-20T09:20:23.143Z,100228.09
2022-11-20T09:22:49.449Z,100227.94
2022-11-20T09:25:15.871Z,100228.78
2022-11-20T09:27:46.636Z,100216.91
2022-11-20T09:30:14.984Z,100217.22
2022-11-20T09:32:41.673Z,100229.78
2022-11-20T09:35:08.891Z,100218.94
2022-11-20T09:37:35.478Z,100215.13
2022-11-20T09:40:02.011Z,100226.41
2022-11-20T09:43:25.790Z,100222.13
2022-11-20T09:46:12.712Z,100213.63
2022-11-20T09:48:52.240Z,100221.63
2022-11-20T09:51:37.391Z,100221.75
2022-11-20T09:54:27.509Z,100216.91
2022-11-20T09:57:04.474Z,100220.88
2022-11-20T09:59:44.002Z,100219.81
2022-11-20T10:02:35.618Z,100221.50
2022-11-20T10:05:11.938Z,100212.53
2022-11-20T10:07:56.142Z,100203.78
2022-11-20T10:10:46.502Z,100215.84
2022-11-20T10:13:24.622Z,100206.50
2022-11-20T10:16:01.684Z,100215.84
2022-11-20T10:18:43.252Z,100206.53
2022-11-20T10:21:27.992Z,100205.50
2022-11-20T10:24:26.654Z,100197.75
2022-11-20T10:26:58.709Z,100195.59
2022-11-20T10:29:34.599Z,100188.81
2022-11-20T10:32:12.314Z,100190.41
2022-11-20T10:35:00.258Z,100186.50
2022-11-20T10:37:29.987Z,100186.06
2022-11-20T10:40:18.418Z,100170.47
2022-11-20T10:42:48.012Z,100181.97
2022-11-20T10:45:19.417Z,100180.72
2022-11-20T10:47:45.788Z,100184.97
2022-11-20T10:50:22.271Z,100189.13
2022-11-20T10:53:04.206Z,100176.91
2022-11-20T10:55:51.607Z,100172.16
2022-11-20T10:58:30.109Z,100167.59
2022-11-20T11:01:16.447Z,100163.56
2022-11-20T11:03:44.412Z,100158.44
2022-11-20T11:06:36.221Z,100157.47
2022-11-20T11:09:11.617Z,100155.03
2022-11-20T11:11:39.339Z,100163.75
2022-11-20T11:14:11.630Z,100157.69
2022-11-20T11:16:50.833Z,100157.41
2022-11-20T11:19:17.901Z,100145.28
2022-11-20T11:21:55.151Z,100146.13
2022-11-20T11:24:43.392Z,100154.03
2022-11-20T11:27:18.409Z,100134.28
2022-11-20T11:29:46.002Z,100139.72
2022-11-20T11:32:19.483Z,100146.28
2022-11-20T11:34:45.984Z,100142.91
2022-11-20T11:37:22.612Z,100128.50
2022-11-20T11:40:03.945Z,100125.38
2022-11-20T11:42:36.670Z,100130.69
2022-11-20T11:45:06.176Z,100134.00
2022-11-20T11:47:44.682Z,100126.66
2022-11-20T11:50:10.963Z,100125.72
2022-11-20T11:52:44.003Z,100121.50
2022-11-20T11:55:16.098Z,100119.56
2022-11-20T11:58:03.037Z,100108.72
2022-11-20T12:00:29.452Z,100108.09
2022-11-20T12:03:19.940Z,100104.38
2022-11-20T12:05:51.981Z,100109.16
2022-11-20T12:08:31.160Z,100102.56
2022-11-20T12:11:05.513Z,100103.19
2022-11-20T12:13:34.866Z,100103.72
2022-11-20T12:16:05.483Z,100100.09
2022-11-20T12:18:32.666Z,100102.22
2022-11-20T12:21:17.495Z,100084.28
2022-11-20T12:24:01.433Z,100072.56
2022-11-20T12:26:56.933Z,100081.69
2022-11-20T12:29:37.706Z,100080.81
2022-11-20T12:32:07.041Z,100089.00
2022-11-20T12:34:53.705Z,100079.09
2022-11-20T12:37:44.628Z,100081.03
2022-11-20T12:40:34.243Z,100088.28
2022-11-20T12:43:39.089Z,100080.50
2022-11-20T12:46:32.768Z,100073.69
2022-11-20T12:49:22.021Z,100066.53
2022-11-20T12:52:33.467Z,100069.22
2022-11-20T12:55:54.114Z,100061.69
2022-11-20T12:59:14.387Z,100061.47
2022-11-20T13:01:51.298Z,100076.34
2022-11-20T13:04:28.356Z,100070.63
2022-11-20T13:06:55.635Z,100068.34
2022-11-20T13:09:24.570Z,100070.53
2022-11-20T13:12:10.466Z,100053.94
2022-11-20T13:15:01.211Z,100054.78
2022-11-20T13:17:48.352Z,100054.47
2022-11-20T13:20:17.951Z,100055.84
2022-11-20T13:23:09.588Z,100049.69
2022-11-20T13:25:40.448Z,100045.88
2022-11-20T13:28:12.578Z,100047.22
2022-11-20T13:30:51.527Z,100038.16
2022-11-20T13:33:34.293Z,100035.13
2022-11-20T13:36:03.635Z,100031.16
2022-11-20T13:38:43.711Z,100029.88
2022-11-20T13:41:28.438Z,100028.78
2022-11-20T13:43:59.274Z,100037.84
2022-11-20T13:46:36.819Z,100026.94
2022-11-20T13:49:09.255Z,100021.06
2022-11-20T13:51:45.538Z,100003.69
2022-11-20T13:54:32.314Z,100000.19
2022-11-20T13:57:22.767Z,99996.88
2022-11-20T14:00:17.026Z,99992.53
2022-11-20T14:02:44.944Z,99994.22
2022-11-20T14:05:21.762Z,99986.97
2022-11-20T14:07:49.876Z,99981.16
2022-11-20T14:10:34.440Z,99985.56
2022-11-20T14:13:16.320Z,99985.56
2022-11-20T14:15:45.191Z,99975.31
2022-11-20T14:18:15.306Z,99965.25
2022-11-20T14:20:43.841Z,99975.84
2022-11-20T14:23:11.623Z,99977.09
2022-11-20T14:25:42.655Z,99969.13
2022-11-20T14:28:19.335Z,99970.56
2022-11-20T14:30:48.416Z,99961.22
2022-11-20T14:33:16.109Z,99967.03
2022-11-20T14:35:48.712Z,99961.72
2022-11-20T14:38:19.125Z,99959.13
2022-11-20T14:40:45.707Z,99964.69
2022-11-20T14:43:22.257Z,99953.81
2022-11-20T14:45:56.393Z,99954.78
2022-11-20T14:48:33.539Z,99954.34
2022-11-20T14:50:59.920Z,99941.00
2022-11-20T14:53:26.849Z,99941.28
2022-11-20T14:56:01.525Z,99939.69
2022-11-20T14:58:34.294Z,99941.28
2022-11-20T15:01:08.465Z,99935.44
2022-11-20T15:03:39.952Z,99939.47
2022-11-20T15:06:08.892Z,99945.75
2022-11-20T15:08:35.620Z,99932.91
2022-11-20T15:11:02.730Z,99924.94
2022-11-20T15:13:39.832Z,99932.91
2022-11-20T15:16:21.474Z,99925.91
2022-11-20T15:18:48.582Z,99919.97
2022-11-20T15:21:17.344Z,99926.88
2022-11-20T15:23:44.518Z,99924.44
2022-11-20T15:26:18.388Z,99925.50
2022-11-20T15:28:48.527Z,99916.44
2022-11-20T15:31:17.665Z,99915.72
2022-11-20T15:33:44.091Z,99921.88
2022-11-20T15:36:11.022Z,99921.88
2022-11-20T15:38:37.874Z,99918.50
2022-11-20T15:41:04.870Z,99911.38
2022-11-20T15:43:31.305Z,99916.25
2022-11-20T15:46:01.221Z,99918.25
2022-11-20T15:48:35.085Z,99916.44
2022-11-20T15:51:19.295Z,99917.28
2022-11-20T15:53:45.665Z,99909.81
2022-11-20T15:56:13.421Z,99904.50
2022-11-20T15:58:40.730Z,99901.00
2022-11-20T16:01:11.308Z,99898.41
2022-11-20T16:03:37.706Z,99896.84
2022-11-20T16:06:04.111Z,99893.09
2022-11-20T16:08:30.567Z,99893.09
2022-11-20T16:10:56.960Z,99880.19
2022-11-20T16:13:42.002Z,99873.50
2022-11-20T16:16:19.626Z,99876.16
2022-11-20T16:18:45.987Z,99867.06
2022-11-20T16:21:14.325Z,99873.22
2022-11-20T16:23:41.534Z,99872.19
2022-11-20T16:26:17.768Z,99872.06
2022-11-20T16:28:44.602Z,99864.28
2022-11-20T16:31:16.317Z,99856.31
2022-11-20T16:33:43.401Z,99855.72
2022-11-20T16:36:14.937Z,99853.47
2022-11-20T16:38:41.873Z,99850.69
2022-11-20T16:41:14.185Z,99844.50
2022-11-20T16:44:00.078Z,99846.94
2022-11-20T16:46:31.599Z,99837.25
2022-11-20T16:48:59.790Z,99834.34
2022-11-20T16:51:27.868Z,99833.75
2022-11-20T16:53:55.870Z,99836.53
2022-11-20T16:56:25.510Z,99833.09
2022-11-20T16:58:53.604Z,99824.16
2022-11-20T17:01:21.505Z,99825.19
2022-11-20T17:03:55.254Z,99827.84
2022-11-20T17:06:27.772Z,99817.22
2022-11-20T17:08:55.586Z,99818.78
2022-11-20T17:11:22.095Z,99803.09
2022-11-20T17:13:48.548Z,99809.13
2022-11-20T17:16:17.873Z,99809.97
2022-11-20T17:18:44.783Z,99800.31
2022-11-20T17:21:12.171Z,99804.53
2022-11-20T17:23:41.170Z,99804.53
2022-11-20T17:26:10.664Z,99795.47
2022-11-20T17:28:38.015Z,99794.03
2022-11-20T17:31:10.628Z,99794.06
2022-11-20T17:33:38.713Z,99787.78
2022-11-20T17:36:06.870Z,99794.66
2022-11-20T17:38:33.514Z,99787.31
2022-11-20T17:41:08.099Z,99773.66
2022-11-20T17:43:37.963Z,99783.31
2022-11-20T17:46:10.233Z,99769.78
2022-11-20T17:48:37.363Z,99768.56
2022-11-20T17:51:06.063Z,99765.19
2022-11-20T17:53:38.137Z,99748.38
2022-11-20T17:56:24.391Z,99747.19
2022-11-20T17:58:51.115Z,99744.25
2022-11-20T18:01:18.111Z,99757.91
2022-11-20T18:03:45.169Z,99740.28
2022-11-20T18:06:17.285Z,99737.84
2022-11-20T18:08:43.702Z,99748.84
2022-11-20T18:11:13.747Z,99737.44
2022-11-20T18:13:59.866Z,99730.78
2022-11-20T18:16:27.799Z,99734.16
2022-11-20T18:18:55.953Z,99732.34
2022-11-20T18:21:26.952Z,99730.66
2022-11-20T18:23:55.168Z,99727.63
2022-11-20T18:26:25.216Z,99719.13
2022-11-20T18:28:51.706Z,99721.56
2022-11-20T18:31:18.944Z,99713.94
2022-11-20T18:33:45.996Z,99717.72
2022-11-20T18:36:18.425Z,99711.84
2022-11-20T18:38:46.759Z,99711.75
2022-11-20T18:41:34.033Z,99710.78
2022-11-20T18:44:20.517Z,99714.28
2022-11-20T18:46:47.626Z,99704.41
2022-11-20T18:49:14.148Z,99704.13
2022-11-20T18:51:41.600Z,99701.25
2022-11-20T18:54:08.161Z,99698.38
2022-11-20T18:56:34.600Z,99700.41
2022-11-20T18:59:03.188Z,99687.72
2022-11-20T19:01:29.906Z,99682.41
2022-11-20T19:03:57.287Z,99685.06
2022-11-20T19:06:24.227Z,99685.13
2022-11-20T19:08:50.595Z,99681.03
2022-11-20T19:11:17.078Z,99688.50
2022-11-20T19:13:44.388Z,99676.53
2022-11-20T19:16:19.770Z,99679.28
2022-11-20T19:18:48.292Z,99683.91
2022-11-20T19:21:18.625Z,99680.38
2022-11-20T19:23:48.774Z,99671.69
2022-11-20T19:26:16.227Z,99676.31
2022-11-20T19:28:43.278Z,99676.88
2022-11-20T19:31:12.567Z,99666.72
2022-11-20T19:33:39.803Z,99668.06
2022-11-20T19:36:15.162Z,99663.00
2022-11-20T19:38:47.639Z,99660.13
2022-11-20T19:41:15.432Z,99659.16
2022-11-20T19:43:42.011Z,99658.53
2022-11-20T19:46:08.559Z,99662.31
2022-11-20T19:48:37.538Z,99657.97
2022-11-20T19:51:11.346Z,99659.28
2022-11-20T19:53:38.042Z,99645.22
2022-11-20T19:56:05.381Z,99647.47
2022-11-20T19:58:31.802Z,99653.19
2022-11-20T20:01:06.262Z,99651.88
2022-11-20T20:03:33.107Z,99643.03
2022-11-20T20:06:14.277Z,99639.81
2022-11-20T20:08:41.802Z,99646.34
2022-11-20T20:11:21.237Z,99642.47
2022-11-20T20:13:47.720Z,99645.91
2022-11-20T20:16:16.888Z,99627.34
2022-11-20T20:18:43.672Z,99631.06
2022-11-20T20:21:13.332Z,99626.81
2022-11-20T20:23:40.808Z,99628.91
2022-11-20T20:26:08.904Z,99622.72
2022-11-20T20:28:36.540Z,99609.16
2022-11-20T20:31:17.518Z,99612.78
2022-11-20T20:33:44.469Z,99603.59
2022-11-20T20:36:13.370Z,99613.78
2022-11-20T20:38:40.104Z,99616.69
2022-11-20T20:41:06.568Z,99605.09
2022-11-20T20:43:55.783Z,99607.97
2022-11-20T20:46:22.578Z,99606.81
2022-11-20T20:48:54.183Z,99603.56
2022-11-20T20:51:21.703Z,99609.00
2022-11-20T20:53:48.315Z,99615.44
2022-11-20T20:56:14.880Z,99616.72
2022-11-20T20:58:41.324Z,99605.94
2022-11-20T21:01:11.894Z,99612.50
2022-11-20T21:03:38.624Z,99615.31
2022-11-20T21:06:06.567Z,99606.34
2022-11-20T21:08:33.059Z,99600.31
2022-11-20T21:11:06.014Z,99598.03
2022-11-20T21:13:34.058Z,99601.19
2022-11-20T21:16:01.326Z,99598.78
2022-11-20T21:18:27.988Z,99604.38
2022-11-20T21:21:13.644Z,99615.00
2022-11-20T21:23:41.852Z,99613.56
2022-11-20T21:26:09.238Z,99605.00
2022-11-20T21:28:37.410Z,99606.94
2022-11-20T21:31:15.865Z,99605.63
2022-11-20T21:33:46.871Z,99611.53
2022-11-20T21:36:16.389Z,99618.03
2022-11-20T21:38:43.398Z,99608.75
2022-11-20T21:41:10.990Z,99612.97
2022-11-20T21:43:38.037Z,99619.28
2022-11-20T21:46:13.486Z,99608.03
2022-11-20T21:48:41.552Z,99622.16
2022-11-20T21:51:19.374Z,99623.69
2022-11-20T21:53:47.034Z,99626.84
2022-11-20T21:56:19.033Z,99621.63
2022-11-20T21:58:47.385Z,99627.56
2022-11-20T22:01:20.343Z,99615.94
2022-11-20T22:03:52.076Z,99630.44
2022-11-20T22:06:19.501Z,99633.09
2022-11-20T22:08:46.182Z,99633.94
2022-11-20T22:11:14.854Z,99629.19
2022-11-20T22:14:00.138Z,99622.88
2022-11-20T22:16:26.765Z,99623.03
2022-11-20T22:18:55.613Z,99619.16
2022-11-20T22:21:24.282Z,99619.00
2022-11-20T22:23:51.274Z,99622.53
2022-11-20T22:26:19.777Z,99615.13
2022-11-20T22:28:48.542Z,99620.44
2022-11-20T22:31:16.313Z,99614.97
2022-11-20T22:33:42.976Z,99613.28
2022-11-20T22:36:12.287Z,99616.69
2022-11-20T22:38:40.162Z,99629.25
2022-11-20T22:41:21.529Z,99621.19
2022-11-20T22:43:48.635Z,99629.03
2022-11-20T22:46:19.185Z,99619.56
2022-11-20T22:48:56.208Z,99605.50
2022-11-20T22:51:25.237Z,99605.84
2022-11-20T22:53:52.054Z,99604.28
2022-11-20T22:56:19.052Z,99613.00
2022-11-20T22:58:47.807Z,99616.22
2022-11-20T23:01:19.850Z,99606.69
2022-11-20T23:03:48.967Z,99611.88
2022-11-20T23:06:17.659Z,99606.69
2022-11-20T23:08:44.871Z,99621.03
2022-11-20T23:11:16.967Z,99621.31
2022-11-20T23:13:45.240Z,99624.47
2022-11-20T23:16:17.109Z,99619.63
2022-11-20T23:18:44.059Z,99623.78
2022-11-20T23:21:13.203Z,99635.00
2022-11-20T23:23:40.073Z,99635.19
2022-11-20T23:26:11.780Z,99632.81
2022-11-20T23:28:39.225Z,99636.19
2022-11-20T23:31:06.369Z,99638.41
2022-11-20T23:33:36.370Z,99643.81
2022-11-20T23:36:03.155Z,99646.25
2022-11-20T23:38:29.584Z,99634.75
2022-11-20T23:40:56.123Z,99630.50
2022-11-20T23:43:23.274Z,99630.22
2022-11-20T23:45:54.795Z,99628.75
2022-11-20T23:48:24.144Z,99629.94
2022-11-20T23:50:50.807Z,99624.13
2022-11-20T23:53:17.959Z,99633.56
2022-11-20T23:55:49.461Z,99618.69
2022-11-20T23:58:16.423Z,99611.25
